Nearby METAR Reports

 

KPDX - Portland, Oregon, USA
Distance from station: NE 9mi, 14km
Updated: Sun, 09-May-2021 11:53am PDT
Mostly cloudy
Mostly cloudy
 Wind from W
Wind: W 6 mph , 9 km/h
Temperature: 59°F , 15°C
Dew Point: 45°F , 7°C
Humidity: 59%
Barometer: 30.28 inHg , 1025.4 hPa
Clouds: Mostly cloudy
Visibility: 10 miles , 16 km
Cloud details: Partly cloudy 3800 ft
Mostly cloudy 6000 ft
2021/05/09 18:53 KPDX 091853Z 28005KT 10SM SCT038 BKN060 15/07 A3028 RMK AO2 SLP251 T01500067
KTMK - Tillamook, Oregon, USA
Distance from station: N 9mi, 14km
Updated: Sun, 09-May-2021 11:55am PDT
Overcast
Overcast
 Wind from calm
Wind: Calm
Temperature: 55°F , 13°C
Dew Point: 50°F , 10°C
Humidity: 82%
Barometer: 30.31 inHg , 1026.4 hPa
Clouds: Overcast
Visibility: 10 miles , 16 km
Cloud details: Mostly cloudy 1500 ft
Overcast 2100 ft
2021/05/09 18:55 KTMK 091855Z AUTO 00000KT 10SM BKN015 OVC021 13/10 A3031 RMK AO2
 
KSLE - Salem, Oregon, USA
Distance from station: NNW 14mi, 23km
Updated: Sun, 09-May-2021 11:56am PDT
Overcast
Overcast
 Wind from ENE
Wind: ENE 6 mph , 9 km/h
Temperature: 59°F , 15°C
Dew Point: 45°F , 7°C
Humidity: 59%
Barometer: 30.27 inHg , 1025.1 hPa
Clouds: Overcast
Visibility: 10 miles , 16 km
Cloud details: Few Clouds 2600 ft
Overcast 5000 ft
2021/05/09 18:56 KSLE 091856Z 07005KT 10SM FEW026 OVC050 15/07 A3027 RMK AO2 SLP250 T01500072
KEUG - Eugene, Oregon, USA
Distance from station: ENE 12mi, 19km
Updated: Sun, 09-May-2021 11:54am PDT
Mostly cloudy
Mostly cloudy
 Wind from N
Wind: N 8 mph , 13 km/h
Temperature: 61°F , 16°C
Dew Point: 45°F , 7°C
Humidity: 55%
Barometer: 30.27 inHg , 1025.1 hPa
Clouds: Mostly cloudy
Visibility: 10 miles , 16 km
Cloud details: Partly cloudy 2700 ft
Mostly cloudy 3500 ft
Mostly cloudy 5500 ft
2021/05/09 18:54 KEUG 091854Z 36007KT 10SM SCT027 BKN035 BKN055 16/07 A3027 RMK AO2 SLP252 T01560072
 
KONP - Newport, Oregon, USA
Distance from station: NNW 31mi, 50km
Updated: Sun, 09-May-2021 11:55am PDT
Mostly cloudy
Mostly cloudy
 Wind from WNW
Wind: WNW 6 mph , 9 km/h
Temperature: 54°F , 12°C
Dew Point: 48°F , 9°C
Humidity: 82%
Barometer: 30.32 inHg , 1026.8 hPa
Clouds: Mostly cloudy
Visibility: 10 miles , 16 km
Cloud details: Partly cloudy 3100 ft
Mostly cloudy 4600 ft
2021/05/09 18:55 KONP 091855Z AUTO 30005KT 10SM SCT031 BKN046 12/09 A3032 RMK AO2
K6S2 - Florence, Oregon, USA
Distance from station: NW 21mi, 34km
Updated: Sun, 09-May-2021 11:55am PDT
Overcast
Overcast
 Wind from NW
Wind: NW 8 mph , 13 km/h
Temperature: 55°F , 13°C
Dew Point: 46°F , 8°C
Humidity: 72%
Barometer: 30.29 inHg , 1025.7 hPa
Clouds: Overcast
Visibility: 10 miles , 16 km
Cloud details: Overcast 5000 ft
2021/05/09 18:55 K6S2 091855Z AUTO 31007KT 10SM OVC050 13/08 A3029 RMK AO2 T01310081
 
KDLS - The Dalles, Oregon, USA
Distance from station: NW 30mi, 49km
Updated: Sun, 09-May-2021 11:53am PDT
Few Clouds
Few Clouds
 Wind from NW
Wind: NW 16 mph , 26 km/h, Gust: 21 mph , 33 km/h
Temperature: 66°F , 19°C
Dew Point: 39°F , 4°C
Humidity: 37%
Barometer: 30.18 inHg , 1022 hPa
Clouds: Few Clouds
Visibility: 10 miles , 16 km
Cloud details: Few Clouds 5500 ft
2021/05/09 18:53 KDLS 091853Z AUTO 32014G18KT 10SM FEW055 19/04 A3018 RMK AO2 SLP220 T01940044
KRDM - Redmond, Oregon, USA
Distance from station: ESE 27mi, 43km
Updated: Sun, 09-May-2021 11:56am PDT
Overcast
Overcast
 Wind from varies
Wind: varies 6 mph , 9 km/h
Temperature: 57°F , 14°C
Dew Point: 32°F , 0°C
Humidity: 39%
Barometer: 30.19 inHg , 1022.4 hPa
Clouds: Overcast
Visibility: 10 miles , 16 km
Cloud details: Few Clouds 4500 ft
Overcast 6000 ft
2021/05/09 18:56 KRDM 091856Z VRB05KT 10SM FEW045 OVC060 14/00 A3019 RMK AO2 SLP220 T01390000
 
KPDT - Pendleton, Oregon, USA
Distance from station: SSE 27mi, 44km
Updated: Sun, 09-May-2021 11:53am PDT
Few Clouds
Few Clouds
 Wind from NW
Wind: NW 12 mph , 19 km/h
Temperature: 61°F , 16°C
Dew Point: 36°F , 2°C
Humidity: 39%
Barometer: 30.18 inHg , 1022 hPa
Clouds: Few Clouds
Visibility: 10 miles , 16 km
Cloud details: Few Clouds 4700 ft
2021/05/09 18:53 KPDT 091853Z 31010KT 10SM FEW047 16/02 A3018 RMK AO2 SLP215 T01560017
KGCD - John Day, Oregon, USA
Distance from station: WNW 31mi, 50km
Updated: Sun, 09-May-2021 11:55am PDT
Overcast
Overcast
 Wind from calm
Wind: Calm
Temperature: 48°F , 9°C
Dew Point: 32°F , 0°C
Humidity: 54%
Barometer: 30.17 inHg , 1021.7 hPa
Clouds: Overcast
Visibility: 10 miles , 16 km
Cloud details: Partly cloudy 4100 ft
Overcast 5000 ft
2021/05/09 18:55 KGCD 091855Z AUTO 00000KT 10SM SCT041 OVC050 09/00 A3017 RMK AO2 T00930003
 
KAST - Astoria, Oregon, USA
Distance from station: N 28mi, 44km
Updated: Sun, 09-May-2021 11:55am PDT
Overcast
Overcast
 Wind from W
Wind: W 8 mph , 13 km/h
Temperature: 54°F , 12°C
Dew Point: 48°F , 9°C
Humidity: 82%
Barometer: 30.29 inHg , 1025.7 hPa
Clouds: Overcast
Visibility: 10 miles , 16 km
Cloud details: Few Clouds 1000 ft
Overcast 1700 ft
2021/05/09 18:55 KAST 091855Z AUTO 26007KT 10SM FEW010 OVC017 12/09 A3029 RMK AO2 SLP257 T01170094
KSEA - Seattle, Washington, USA
Distance from station: NNE 31mi, 51km
Updated: Sun, 09-May-2021 11:53am PDT
Mostly cloudy
Mostly cloudy
 Wind from W
Wind: W 5 mph , 7 km/h
Temperature: 55°F , 13°C
Dew Point: 46°F , 8°C
Humidity: 72%
Barometer: 30.28 inHg , 1025.4 hPa
Clouds: Mostly cloudy
Visibility: 10 miles , 16 km
Cloud details: Partly cloudy 2400 ft
Mostly cloudy 2900 ft
Mostly cloudy 5000 ft
2021/05/09 18:53 KSEA 091853Z 27004KT 10SM SCT024 BKN029 BKN050 13/08 A3028 RMK AO2 SLP260 T01330078